Time;durP1;ratioP1;P1;durP2;ratioP2;P2;SDS_P1;SDS_P2;PMS_P1;PMS_P2;Temp;Humidity;BMP_temperature;BMP_pressure;BME280_temperature;BME280_humidity;BME280_pressure;Samples;Min_cycle;Max_cycle;Signal;HPM_P1;HPM_P2
2023/01/06 00:01:33;;;;;;;8.93;5.88;;;10.50;99.90;;;-144.05;85.61;125687.94;5027195;28;20339;-82
2023/01/06 00:04:01;;;;;;;12.77;5.32;;;10.50;99.90;;;-144.05;85.06;125687.94;5010864;28;20041;-83
2023/01/06 00:06:29;;;;;;;8.40;4.93;;;10.60;99.90;;;-144.05;84.09;125687.94;5010536;28;20032;-83
2023/01/06 00:09:02;;;;;;;7.55;4.32;;;10.50;99.90;;;-144.05;83.54;125687.94;5011403;28;20026;-82
2023/01/06 00:11:30;;;;;;;8.65;4.47;;;10.60;99.90;;;-144.05;83.48;125687.94;5010399;28;20049;-81
2023/01/06 00:13:56;;;;;;;5.55;3.10;;;10.60;99.90;;;-144.05;82.38;125687.94;5010344;28;20026;-83
2023/01/06 00:16:22;;;;;;;5.18;3.60;;;10.60;99.90;;;-144.05;82.19;125687.94;5010846;28;20115;-82
2023/01/06 00:18:48;;;;;;;5.32;3.50;;;10.60;99.90;;;-144.05;82.22;125687.94;5026841;28;20026;-83
2023/01/06 00:21:15;;;;;;;7.47;3.10;;;10.60;99.90;;;-144.05;81.83;125687.94;5010752;28;20055;-82
2023/01/06 00:23:41;;;;;;;7.35;3.17;;;10.60;99.90;;;-144.05;80.97;125687.94;5012182;28;20026;-84
2023/01/06 00:26:10;;;;;;;5.75;3.03;;;10.60;99.90;;;-144.05;80.63;125687.94;5012243;28;20030;-85
2023/01/06 00:28:36;;;;;;;6.18;2.78;;;10.60;99.90;;;-144.05;80.26;125687.94;5015773;28;20038;-85
2023/01/06 00:31:15;;;;;;;8.73;2.97;;;10.60;99.90;;;-144.05;80.22;125687.94;5014951;28;20122;-85
2023/01/06 00:33:42;;;;;;;3.05;2.10;;;10.60;99.90;;;-144.05;79.87;125687.94;5014886;28;20099;-84
2023/01/06 00:36:11;;;;;;;4.50;2.42;;;10.60;99.90;;;-144.05;80.05;125687.94;5015126;28;20482;-80
2023/01/06 00:38:38;;;;;;;4.75;2.03;;;10.60;99.90;;;-144.05;80.25;125687.94;5015334;28;20545;-86
2023/01/06 00:44:00;;;;;;;4.93;2.20;;;10.50;99.90;;;-144.05;80.37;125687.94;5035830;28;20028;-77
2023/01/06 00:46:29;;;;;;;6.80;2.03;;;10.50;99.90;;;-144.05;79.97;125687.94;5024200;28;20466;-83
2023/01/06 00:48:57;;;;;;;5.60;2.20;;;10.50;99.90;;;-144.05;80.55;125687.94;5014860;28;20034;-82
2023/01/06 00:51:23;;;;;;;3.97;2.13;;;10.50;99.90;;;-144.05;80.52;125687.94;5030173;28;20026;-83
2023/01/06 00:53:49;;;;;;;5.55;2.45;;;10.40;99.90;;;-144.05;80.58;125687.94;5014064;28;20061;-86
2023/01/06 00:56:15;;;;;;;6.68;2.38;;;10.50;99.90;;;-144.05;80.25;125687.94;5015296;28;20037;-84
2023/01/06 00:58:40;;;;;;;6.75;2.95;;;10.40;99.90;;;-144.05;80.99;125687.94;5014569;28;20030;-83
2023/01/06 01:01:09;;;;;;;7.22;2.78;;;10.50;99.90;;;-144.05;80.87;125687.94;5014544;28;20041;-82
2023/01/06 01:03:38;;;;;;;6.55;2.30;;;10.50;99.90;;;-144.05;80.55;125687.94;5013170;28;20030;-79
2023/01/06 01:06:08;;;;;;;7.60;2.70;;;10.50;99.90;;;-144.05;81.28;125687.94;5013045;28;20026;-82
2023/01/06 01:08:34;;;;;;;11.27;2.60;;;10.50;99.90;;;-144.05;81.32;125687.94;5012805;28;20040;-82
2023/01/06 01:12:08;;;;;;;5.53;2.15;;;10.50;99.90;;;-144.05;81.27;125687.94;5012890;28;20030;-82
2023/01/06 01:13:57;;;;;;;7.22;2.30;;;10.50;99.90;;;-144.05;81.10;125687.94;5014482;28;20076;-80
2023/01/06 01:16:23;;;;;;;5.28;2.15;;;10.60;99.90;;;-144.05;80.84;125687.94;5012850;28;20038;-78
2023/01/06 01:18:49;;;;;;;7.70;2.03;;;10.60;99.90;;;-144.05;80.96;125687.94;5012306;28;20030;-82
2023/01/06 01:21:15;;;;;;;6.90;2.28;;;10.60;99.90;;;-144.05;80.75;125687.94;5012818;28;20064;-82
2023/01/06 01:23:40;;;;;;;6.20;1.83;;;10.60;99.90;;;-144.05;80.56;125687.94;5012602;28;20173;-82
2023/01/06 01:26:06;;;;;;;4.28;1.92;;;10.60;99.90;;;-144.05;80.16;125687.94;5012094;28;20117;-82
2023/01/06 01:28:32;;;;;;;5.85;2.13;;;10.60;99.90;;;-144.05;80.34;125687.94;5028893;28;20034;-82
2023/01/06 01:31:02;;;;;;;7.20;2.03;;;10.50;99.90;;;-144.05;80.05;125687.94;5013954;28;20103;-81
2023/01/06 01:33:30;;;;;;;4.45;1.70;;;10.60;99.90;;;-144.05;79.65;125687.94;5028903;28;20034;-81
2023/01/06 01:35:56;;;;;;;5.13;1.85;;;10.50;99.90;;;-144.05;79.63;125687.94;5012663;28;20406;-80
2023/01/06 01:38:25;;;;;;;6.70;1.60;;;10.50;99.90;;;-144.05;79.27;125687.94;5011640;28;20116;-80
2023/01/06 01:40:51;;;;;;;3.47;1.42;;;10.50;99.90;;;-144.05;79.00;125687.94;5012325;28;20033;-82
2023/01/06 01:43:19;;;;;;;6.63;1.80;;;10.50;99.90;;;-144.05;78.65;125687.94;5012579;28;20022;-82
2023/01/06 01:45:54;;;;;;;7.80;1.20;;;10.50;99.90;;;-144.05;78.31;125687.94;5028709;28;20052;-83
2023/01/06 01:48:34;;;;;;;7.00;1.42;;;10.60;99.90;;;-144.05;77.79;125687.94;5012072;28;20025;-82
2023/01/06 01:51:08;;;;;;;3.53;1.10;;;10.60;99.90;;;-144.05;77.39;125687.94;5012362;28;20417;-82
2023/01/06 01:53:51;;;;;;;5.35;1.00;;;10.60;99.90;;;-144.05;77.39;125687.94;5012578;28;20501;-82
2023/01/06 01:56:29;;;;;;;2.60;1.00;;;10.50;99.90;;;-144.05;76.92;125687.94;5012216;28;20037;-82
2023/01/06 01:59:10;;;;;;;3.55;1.10;;;10.60;99.90;;;-144.05;76.33;125687.94;5011908;28;20036;-82
2023/01/06 02:01:36;;;;;;;7.35;1.08;;;10.60;99.90;;;-144.05;76.10;125687.94;5013060;28;20028;-86
2023/01/06 02:04:04;;;;;;;4.57;1.08;;;10.50;99.90;;;-144.05;75.83;125687.94;5016918;28;20505;-86
2023/01/06 02:06:31;;;;;;;2.10;0.90;;;10.60;99.90;;;-144.05;75.70;125687.94;5020242;28;20036;-82
2023/01/06 02:09:25;;;;;;;4.38;1.38;;;10.60;99.90;;;-144.05;75.69;125687.94;5012881;28;20030;-81
2023/01/06 02:11:51;;;;;;;3.78;1.40;;;10.60;99.90;;;-144.05;75.87;125687.94;5013350;28;20064;-83
2023/01/06 02:14:25;;;;;;;5.28;1.20;;;10.70;99.90;;;-144.05;76.05;125687.94;5013347;28;20029;-82
2023/01/06 02:17:45;;;;;;;5.82;1.20;;;10.50;99.90;;;-144.05;75.54;125687.94;5028142;28;20120;-81
2023/01/06 02:20:57;;;;;;;4.32;1.30;;;10.50;99.90;;;-144.05;75.57;125687.94;5012993;28;20022;-82
2023/01/06 02:23:58;;;;;;;3.85;0.90;;;10.50;99.90;;;-144.05;74.66;125687.94;5011627;28;20026;-81
2023/01/06 02:26:42;;;;;;;3.08;1.15;;;10.60;99.90;;;-144.05;74.41;125687.94;5010614;28;20044;-82
2023/01/06 02:29:41;;;;;;;1.33;0.90;;;10.60;99.90;;;-144.05;74.41;125687.94;5027926;28;20080;-82
2023/01/06 02:32:39;;;;;;;2.83;1.10;;;10.60;99.90;;;-144.05;73.72;125687.94;5030278;28;20040;-81
2023/01/06 02:35:36;;;;;;;4.10;1.05;;;10.60;99.90;;;-144.05;73.82;125687.94;5028626;28;20029;-84
2023/01/06 02:39:03;;;;;;;3.53;1.17;;;10.70;99.90;;;-144.05;73.90;125687.94;5028450;28;20058;-84
2023/01/06 02:41:45;;;;;;;2.80;1.27;;;10.60;99.90;;;-144.05;73.35;125687.94;5001065;28;20014;-81
2023/01/06 02:44:45;;;;;;;2.88;1.23;;;10.70;99.90;;;-144.05;73.28;125687.94;5034001;28;20049;-82
2023/01/06 02:47:38;;;;;;;5.10;1.23;;;10.70;99.90;;;-144.05;73.15;125687.94;5007937;28;20561;-82
2023/01/06 02:50:29;;;;;;;1.83;1.20;;;10.70;99.90;;;-144.05;72.76;125687.94;5026760;28;20026;-79
2023/01/06 02:53:43;;;;;;;2.75;0.80;;;10.70;99.90;;;-144.05;73.32;125687.94;5011588;28;20053;-83
2023/01/06 02:56:10;;;;;;;3.70;1.55;;;10.70;99.90;;;-144.05;72.86;125687.94;5012170;28;20128;-84
2023/01/06 02:59:01;;;;;;;8.23;1.50;;;10.70;99.90;;;-144.05;72.63;125687.94;5010701;28;20229;-85
2023/01/06 03:01:39;;;;;;;2.35;1.00;;;10.70;99.90;;;-144.05;73.20;125687.94;5011386;28;20057;-83
2023/01/06 03:04:17;;;;;;;6.50;1.20;;;10.70;99.90;;;-144.05;73.01;125687.94;5011068;28;20036;-84
2023/01/06 03:06:51;;;;;;;5.95;1.20;;;10.70;99.90;;;-144.05;72.77;125687.94;5012435;28;20037;-84
2023/01/06 03:09:26;;;;;;;5.50;1.20;;;10.70;99.90;;;-144.05;72.72;125687.94;5011986;28;20478;-84
2023/01/06 03:11:52;;;;;;;5.93;1.35;;;10.70;99.90;;;-144.05;72.54;125687.94;5012716;28;20307;-83
2023/01/06 03:14:30;;;;;;;5.35;1.23;;;10.70;99.90;;;-144.05;72.37;125687.94;5028683;28;20081;-82
2023/01/06 03:16:57;;;;;;;3.75;1.10;;;10.70;99.90;;;-144.05;72.12;125687.94;5010490;28;20045;-83
2023/01/06 03:19:24;;;;;;;4.57;1.10;;;10.70;99.90;;;-144.05;71.69;125687.94;5010212;28;20547;-82
2023/01/06 03:21:51;;;;;;;2.03;1.02;;;10.70;99.90;;;-144.05;71.70;125687.94;5010766;28;20245;-82
2023/01/06 03:24:17;;;;;;;4.47;1.15;;;10.80;99.90;;;-144.05;71.96;125687.94;5010799;28;20030;-84
2023/01/06 03:26:47;;;;;;;2.58;1.40;;;10.70;99.90;;;-144.05;71.22;125687.94;5012108;28;20037;-86
2023/01/06 03:29:17;;;;;;;3.17;1.10;;;10.80;99.90;;;-144.05;71.00;125687.94;5011087;28;20410;-80
2023/01/06 03:32:11;;;;;;;3.20;1.13;;;10.70;99.90;;;-144.05;70.91;125687.94;5010752;28;20128;-82
2023/01/06 03:35:13;;;;;;;5.32;1.13;;;10.70;99.90;;;-144.05;71.11;125687.94;5027020;28;20398;-84
2023/01/06 03:38:01;;;;;;;5.30;1.02;;;10.70;99.90;;;-144.05;71.35;125687.94;5026709;28;20026;-82
2023/01/06 03:40:42;;;;;;;4.15;1.00;;;10.70;99.90;;;-144.05;71.37;125687.94;5010401;28;20036;-82
2023/01/06 03:43:51;;;;;;;7.10;1.08;;;10.70;99.90;;;-144.05;71.13;125687.94;5010646;28;20032;-82
2023/01/06 03:46:38;;;;;;;3.47;1.08;;;10.70;99.90;;;-144.05;71.00;125687.94;5010329;28;20017;-81
2023/01/06 03:49:28;;;;;;;5.88;1.60;;;10.70;99.90;;;-144.05;70.88;125687.94;5009997;28;20066;-82
2023/01/06 03:52:26;;;;;;;6.13;1.50;;;10.60;99.90;;;-144.05;70.83;125687.94;5010369;28;20137;-82
2023/01/06 03:55:20;;;;;;;6.43;1.50;;;10.70;99.90;;;-144.05;70.24;125687.94;5010315;28;20472;-83
2023/01/06 03:57:56;;;;;;;5.45;1.27;;;10.60;99.90;;;-144.05;70.22;125687.94;5011475;28;20030;-82
2023/01/06 04:00:31;;;;;;;7.20;1.25;;;10.70;99.90;;;-144.05;69.30;125687.94;5011709;28;20030;-84
2023/01/06 04:02:57;;;;;;;4.13;1.02;;;10.60;99.90;;;-144.05;68.90;125687.94;5014128;28;20034;-83
2023/01/06 04:05:27;;;;;;;2.90;0.90;;;10.70;99.90;;;-144.05;69.11;125687.94;5014085;28;20052;-82
2023/01/06 04:07:54;;;;;;;5.25;1.35;;;10.70;99.90;;;-144.05;68.88;125687.94;5014462;28;20037;-83
2023/01/06 04:10:23;;;;;;;5.30;1.23;;;10.70;99.90;;;-144.05;68.99;125687.94;5014133;28;20052;-84
2023/01/06 04:12:50;;;;;;;2.10;1.02;;;10.70;99.90;;;-144.05;68.52;125687.94;5014544;28;20393;-84
2023/01/06 04:15:23;;;;;;;3.70;0.90;;;10.70;99.90;;;-144.05;68.10;125687.94;5014184;28;20129;-84
2023/01/06 04:17:51;;;;;;;4.90;1.10;;;10.70;99.90;;;-144.05;68.41;125687.94;5014025;28;20038;-84
2023/01/06 04:20:26;;;;;;;5.90;1.08;;;10.70;99.90;;;-144.05;67.80;125687.94;5016130;28;20033;-82
2023/01/06 04:22:58;;;;;;;2.47;0.70;;;10.70;99.90;;;-144.05;67.62;125687.94;5032735;28;20026;-80
2023/01/06 04:25:24;;;;;;;3.45;1.10;;;10.70;99.90;;;-144.05;67.06;125687.94;5017228;28;20040;-84
2023/01/06 04:27:51;;;;;;;9.55;1.30;;;10.80;99.90;;;-144.05;67.05;125687.94;5016668;28;20034;-83
2023/01/06 04:30:17;;;;;;;4.00;1.20;;;10.70;99.90;;;-144.05;67.26;125687.94;5015222;28;20033;-83
2023/01/06 04:32:44;;;;;;;4.78;1.73;;;10.80;99.90;;;-144.05;67.34;125687.94;5015439;28;20098;-84
2023/01/06 04:35:10;;;;;;;4.72;1.02;;;10.70;99.90;;;-144.05;68.05;125687.94;5015368;28;20478;-85
2023/01/06 04:37:36;;;;;;;4.70;1.20;;;10.70;99.90;;;-144.05;67.71;125687.94;5015683;28;20450;-85
2023/01/06 04:40:06;;;;;;;4.45;1.17;;;10.70;99.90;;;-144.05;68.20;125687.94;5016662;28;20132;-87
2023/01/06 04:43:02;;;;;;;5.25;1.00;;;10.70;99.90;;;-144.05;68.23;125687.94;5049723;28;20050;-82
2023/01/06 04:45:20;;;;;;;6.13;1.55;;;10.80;99.90;;;-144.05;68.10;125687.94;5016749;28;20435;-82
2023/01/06 04:47:45;;;;;;;5.28;1.20;;;10.70;99.90;;;-144.05;68.15;125687.94;5015231;28;20109;-82
2023/01/06 04:50:12;;;;;;;1.65;0.60;;;10.80;99.90;;;-144.05;68.46;125687.94;5015337;28;20097;-81
2023/01/06 04:52:37;;;;;;;4.05;1.02;;;10.70;99.90;;;-144.05;68.89;125687.94;5013785;28;20165;-81
2023/01/06 04:55:04;;;;;;;5.35;0.80;;;10.70;99.90;;;-144.05;69.00;125687.94;5013918;28;20111;-83
2023/01/06 04:57:32;;;;;;;8.40;0.98;;;10.70;99.90;;;-144.05;69.08;125687.94;5013517;28;20030;-82
2023/01/06 04:59:58;;;;;;;2.22;0.85;;;10.70;99.90;;;-144.05;69.49;125687.94;5014384;28;20025;-82
2023/01/06 05:02:24;;;;;;;2.85;0.70;;;10.70;99.90;;;-144.05;69.73;125687.94;5014155;28;20026;-83
2023/01/06 05:04:50;;;;;;;5.30;0.98;;;10.70;99.90;;;-144.05;69.68;125687.94;5013800;28;20105;-82
2023/01/06 05:07:16;;;;;;;2.97;0.98;;;10.60;99.90;;;-144.05;69.35;125687.94;5013804;28;20030;-83
2023/01/06 05:09:41;;;;;;;6.72;0.90;;;10.70;99.90;;;-144.05;69.31;125687.94;5013636;28;20118;-83
2023/01/06 05:12:07;;;;;;;4.38;0.98;;;10.70;99.90;;;-144.05;69.10;125687.94;5013067;28;20509;-84
2023/01/06 05:14:33;;;;;;;4.72;1.08;;;10.80;99.90;;;-144.05;69.64;125687.94;5014904;28;20042;-84
2023/01/06 05:16:59;;;;;;;4.07;0.90;;;10.70;99.90;;;-144.05;69.18;125687.94;5013537;28;20045;-84
2023/01/06 05:19:25;;;;;;;2.45;0.80;;;10.70;99.90;;;-144.05;69.60;125687.94;5013518;28;20362;-85
2023/01/06 05:21:51;;;;;;;4.88;1.02;;;10.70;99.90;;;-144.05;69.18;125687.94;5013553;28;20509;-84
2023/01/06 05:24:23;;;;;;;3.22;0.93;;;10.70;99.90;;;-144.05;69.64;125687.94;5013580;28;20030;-83
2023/01/06 05:26:51;;;;;;;7.60;2.15;;;10.70;99.90;;;-144.05;69.88;125687.94;5012685;28;20390;-84
2023/01/06 05:29:19;;;;;;;5.05;1.10;;;10.70;99.90;;;-144.05;69.97;125687.94;5029823;28;20026;-83
2023/01/06 05:31:51;;;;;;;4.85;1.08;;;10.60;99.90;;;-144.05;70.20;125687.94;5013441;28;20437;-83
2023/01/06 05:34:17;;;;;;;3.55;1.10;;;10.60;99.90;;;-144.05;70.62;125687.94;5013392;28;20026;-83
2023/01/06 05:36:57;;;;;;;5.97;1.20;;;10.60;99.90;;;-144.05;70.68;125687.94;5013362;28;20084;-83
2023/01/06 05:39:27;;;;;;;4.97;1.17;;;10.60;99.90;;;-144.05;70.35;125687.94;5013575;28;20454;-84
2023/01/06 05:41:59;;;;;;;5.15;1.15;;;10.60;99.90;;;-144.05;71.06;125687.94;5013529;28;20528;-85
2023/01/06 05:44:28;;;;;;;3.63;0.98;;;10.60;99.90;;;-144.05;70.91;125687.94;5013961;28;20084;-84
2023/01/06 05:47:09;;;;;;;4.45;0.82;;;10.60;99.90;;;-144.05;70.86;125687.94;4998547;28;20115;-84
2023/01/06 05:49:35;;;;;;;3.17;0.90;;;10.60;99.90;;;-144.05;70.46;125687.94;5029596;28;20021;-81
2023/01/06 05:52:04;;;;;;;2.88;0.80;;;10.60;99.90;;;-144.05;70.41;125687.94;5029574;28;20080;-82
2023/01/06 05:55:11;;;;;;;3.80;1.02;;;10.70;99.90;;;-144.05;70.74;125687.94;5012802;28;20034;-84
2023/01/06 05:58:12;;;;;;;4.30;0.90;;;10.60;99.90;;;-144.05;70.51;125687.94;5011681;28;20111;-83
2023/01/06 06:01:10;;;;;;;4.93;1.02;;;10.70;99.90;;;-144.05;70.29;125687.94;5012466;28;20452;-82
2023/01/06 06:03:46;;;;;;;3.67;0.80;;;10.60;99.90;;;-144.05;70.21;125687.94;5014369;28;20406;-87
2023/01/06 06:06:12;;;;;;;2.85;0.82;;;10.70;99.90;;;-144.05;70.12;125687.94;5012652;28;20026;-83
2023/01/06 06:08:38;;;;;;;3.60;0.80;;;10.70;99.90;;;-144.05;70.22;125687.94;5012142;28;20037;-81
2023/01/06 06:11:11;;;;;;;7.65;1.13;;;10.70;99.90;;;-144.05;70.58;125687.94;5012403;28;20085;-82
2023/01/06 06:13:38;;;;;;;4.78;0.95;;;10.70;99.90;;;-144.05;70.24;125687.94;5014246;28;20025;-83
2023/01/06 06:16:13;;;;;;;3.50;0.85;;;10.60;99.90;;;-144.05;70.64;125687.94;5020383;28;20261;-85
2023/01/06 06:18:41;;;;;;;5.53;0.98;;;10.70;99.90;;;-144.05;70.04;125687.94;5039982;28;20120;-84
2023/01/06 06:21:15;;;;;;;1.92;0.90;;;10.70;99.90;;;-144.05;70.19;125687.94;5043987;28;20080;-84
2023/01/06 06:23:42;;;;;;;1.92;0.70;;;10.70;99.90;;;-144.05;69.71;125687.94;5029988;28;20474;-83
2023/01/06 06:26:10;;;;;;;3.60;0.95;;;10.70;99.90;;;-144.05;70.00;125687.94;5014250;28;20059;-83
2023/01/06 06:28:39;;;;;;;2.33;0.60;;;10.70;99.90;;;-144.05;69.82;125687.94;5012766;28;20030;-81
2023/01/06 06:31:36;;;;;;;3.05;0.90;;;10.70;99.90;;;-144.05;70.12;125687.94;5029500;28;20040;-83
2023/01/06 06:34:03;;;;;;;5.82;1.17;;;10.60;99.90;;;-144.05;70.11;125687.94;5012687;28;20041;-84
2023/01/06 06:36:31;;;;;;;2.95;0.82;;;10.70;99.90;;;-144.05;70.19;125687.94;5014184;28;20049;-86
2023/01/06 06:39:00;;;;;;;6.50;0.93;;;10.70;99.90;;;-144.05;69.52;125687.94;5020179;28;20018;-81
2023/01/06 06:41:26;;;;;;;2.17;0.70;;;10.70;99.90;;;-144.05;69.88;125687.94;5052177;28;20039;-83
2023/01/06 06:43:52;;;;;;;6.43;1.20;;;10.60;99.90;;;-144.05;69.69;125687.94;5015196;28;20154;-84
2023/01/06 06:46:24;;;;;;;2.28;0.70;;;10.60;99.90;;;-144.05;70.19;125687.94;5012968;28;20240;-84
2023/01/06 06:48:50;;;;;;;3.90;1.15;;;10.50;99.90;;;-144.05;70.23;125687.94;5011605;28;20141;-83
2023/01/06 06:51:21;;;;;;;2.28;0.90;;;10.50;99.90;;;-144.05;70.18;125687.94;5028416;28;20026;-83
2023/01/06 06:53:47;;;;;;;2.42;0.60;;;10.60;99.90;;;-144.05;70.07;125687.94;5028011;28;20411;-82
2023/01/06 06:56:17;;;;;;;2.70;1.25;;;10.60;99.90;;;-144.05;70.50;125687.94;5011616;28;20076;-81
2023/01/06 06:58:43;;;;;;;2.78;1.08;;;10.60;99.90;;;-144.05;70.02;125687.94;5011936;28;20132;-85
2023/01/06 07:01:17;;;;;;;3.63;1.05;;;10.60;99.90;;;-144.05;70.49;125687.94;5012092;28;20034;-84
2023/01/06 07:03:50;;;;;;;3.60;0.80;;;10.60;99.90;;;-144.05;70.36;125687.94;5012888;28;20026;-84
2023/01/06 07:06:25;;;;;;;1.80;0.85;;;10.60;99.90;;;-144.05;71.17;125687.94;5028759;28;20350;-87
2023/01/06 07:08:51;;;;;;;0.90;0.80;;;10.60;99.90;;;-144.05;70.93;125687.94;5028258;28;20575;-84
2023/01/06 07:11:17;;;;;;;3.40;0.80;;;10.50;99.90;;;-144.05;70.98;125687.94;5028054;28;20044;-81
2023/01/06 07:13:44;;;;;;;3.97;0.70;;;10.50;99.90;;;-144.05;71.35;125687.94;5012160;28;20037;-84
2023/01/06 07:16:10;;;;;;;3.97;0.90;;;10.50;99.90;;;-144.05;71.33;125687.94;5011807;28;20500;-82
2023/01/06 07:18:37;;;;;;;2.53;0.75;;;10.60;99.90;;;-144.05;70.86;125687.94;5011560;28;20041;-82
2023/01/06 07:21:04;;;;;;;2.33;0.65;;;10.60;99.90;;;-144.05;70.98;125687.94;5012278;28;20034;-84
2023/01/06 07:23:31;;;;;;;2.10;0.85;;;10.50;99.90;;;-144.05;71.21;125687.94;5012367;28;20053;-82
2023/01/06 07:26:00;;;;;;;1.15;0.40;;;10.50;99.90;;;-144.05;71.69;125687.94;5011975;28;20037;-84
2023/01/06 07:28:30;;;;;;;1.55;0.57;;;10.50;99.90;;;-144.05;71.54;125687.94;5011216;28;20420;-83
2023/01/06 07:30:56;;;;;;;0.73;0.40;;;10.50;99.90;;;-144.05;71.35;125687.94;5011847;28;20049;-83
2023/01/06 07:33:22;;;;;;;0.82;0.50;;;10.60;99.90;;;-144.05;71.74;125687.94;5028573;28;20033;-83
2023/01/06 07:35:54;;;;;;;2.10;0.60;;;10.50;99.90;;;-144.05;71.49;125687.94;5011493;28;20030;-83
2023/01/06 07:38:21;;;;;;;2.55;0.90;;;10.50;99.90;;;-144.05;71.34;125687.94;5011684;28;20232;-83
2023/01/06 07:40:47;;;;;;;3.80;0.60;;;10.50;99.90;;;-144.05;71.75;125687.94;5011494;28;20124;-83
2023/01/06 07:43:13;;;;;;;1.50;0.60;;;10.50;99.90;;;-144.05;72.24;125687.94;5011650;28;20080;-83
2023/01/06 07:45:39;;;;;;;2.72;0.45;;;10.60;99.90;;;-144.05;71.53;125687.94;5028367;28;20112;-82
2023/01/06 07:48:05;;;;;;;2.38;0.77;;;10.50;99.90;;;-144.05;71.46;125687.94;5011269;28;20120;-84
2023/01/06 07:50:32;;;;;;;0.52;0.38;;;10.60;99.90;;;-144.05;71.87;125687.94;5010992;28;20481;-82
2023/01/06 07:53:02;;;;;;;6.60;0.68;;;10.70;99.90;;;-144.05;71.39;125687.94;5011401;28;20084;-84
2023/01/06 07:55:29;;;;;;;2.47;0.65;;;10.60;99.90;;;-144.05;71.18;125687.94;5011066;28;20034;-84
2023/01/06 07:57:57;;;;;;;1.27;0.60;;;10.60;99.90;;;-144.05;71.02;125687.94;5012671;28;20026;-83
2023/01/06 08:00:23;;;;;;;2.15;0.70;;;10.70;99.90;;;-144.05;70.88;125687.94;5011699;28;20149;-83
2023/01/06 08:02:49;;;;;;;2.35;0.63;;;10.70;99.90;;;-144.05;71.11;125687.94;5010863;28;20026;-83
2023/01/06 08:05:15;;;;;;;0.95;0.60;;;10.70;99.90;;;-144.05;70.84;125687.94;5011373;28;20034;-82
2023/01/06 08:07:41;;;;;;;2.40;0.90;;;10.80;99.90;;;-144.05;70.05;125687.94;5011408;28;20066;-83
2023/01/06 08:10:07;;;;;;;2.00;0.75;;;10.80;99.90;;;-144.05;70.19;125687.94;5011737;28;20053;-83
2023/01/06 08:12:33;;;;;;;1.35;1.10;;;10.90;99.90;;;-144.05;70.39;125687.94;5011839;28;20056;-82
2023/01/06 08:14:59;;;;;;;2.53;1.05;;;10.90;99.90;;;-144.05;70.31;125687.94;5012159;28;20034;-83
2023/01/06 08:17:25;;;;;;;2.30;1.20;;;10.80;99.90;;;-144.05;69.74;125687.94;5011557;28;20069;-82
2023/01/06 08:19:51;;;;;;;1.48;0.80;;;10.90;99.90;;;-144.05;69.96;125687.94;5012050;28;20168;-80
2023/01/06 08:22:17;;;;;;;2.88;0.88;;;10.90;99.90;;;-144.05;69.82;125687.94;5014872;28;20045;-83
2023/01/06 08:24:43;;;;;;;3.67;1.08;;;10.90;99.90;;;-144.05;70.19;125687.94;5012442;28;20442;-83
2023/01/06 08:27:08;;;;;;;5.20;1.00;;;10.90;99.90;;;-144.05;69.95;125687.94;5012443;28;20113;-82
2023/01/06 08:29:34;;;;;;;1.98;1.00;;;11.00;99.90;;;-144.05;69.66;125687.94;5027569;28;20033;-87
2023/01/06 08:32:00;;;;;;;7.50;1.13;;;11.00;99.90;;;-144.05;69.86;125687.94;5012300;28;20033;-85
2023/01/06 08:34:26;;;;;;;2.63;0.75;;;11.00;99.90;;;-144.05;69.89;125687.94;5013198;28;20052;-84
2023/01/06 08:36:52;;;;;;;3.58;1.05;;;11.00;99.90;;;-144.05;69.92;125687.94;5030706;28;20036;-80
2023/01/06 08:39:18;;;;;;;1.90;0.90;;;11.00;99.90;;;-144.05;70.46;125687.94;5038120;28;20528;-83
2023/01/06 08:41:46;;;;;;;4.45;1.48;;;11.00;99.90;;;-144.05;70.27;125687.94;5010964;28;20034;-84
2023/01/06 08:44:12;;;;;;;3.95;0.98;;;11.00;99.90;;;-144.05;70.00;125687.94;5011353;28;20026;-84
2023/01/06 08:46:38;;;;;;;2.35;0.82;;;11.00;99.90;;;-144.05;70.59;125687.94;5011839;28;20121;-82
2023/01/06 08:49:04;;;;;;;3.50;1.00;;;11.10;99.90;;;-144.05;70.69;125687.94;5014956;28;20565;-82
2023/01/06 08:51:31;;;;;;;1.58;0.80;;;11.00;99.90;;;-144.05;70.51;125687.94;5015495;28;20030;-80
2023/01/06 08:53:56;;;;;;;1.20;0.57;;;11.00;99.90;;;-144.05;71.57;125687.94;5014495;28;20470;-82
2023/01/06 08:56:33;;;;;;;1.02;0.50;;;11.00;99.90;;;-144.05;73.28;125687.94;5014170;28;20041;-83
2023/01/06 08:59:04;;;;;;;2.20;0.75;;;10.90;99.90;;;-144.05;74.25;125687.94;5013626;28;20049;-83
2023/01/06 09:01:36;;;;;;;1.55;0.77;;;10.80;99.90;;;-144.05;75.08;125687.94;5014193;28;20030;-82
2023/01/06 09:04:07;;;;;;;1.65;0.90;;;10.70;99.90;;;-144.05;76.04;125687.94;5013842;28;20022;-84
2023/01/06 09:06:34;;;;;;;1.15;0.65;;;10.60;99.90;;;-144.05;75.95;125687.94;5014406;28;20113;-82
2023/01/06 09:09:05;;;;;;;2.28;1.15;;;10.60;99.90;;;-144.05;76.02;125687.94;5013538;28;20040;-81
2023/01/06 09:11:31;;;;;;;2.83;0.63;;;10.60;99.90;;;-144.05;75.15;125687.94;5030409;28;20030;-80
2023/01/06 09:13:57;;;;;;;0.95;0.73;;;10.60;99.90;;;-144.05;75.18;125687.94;5013811;28;20032;-81
2023/01/06 09:16:23;;;;;;;1.50;0.70;;;10.70;99.90;;;-144.05;74.71;125687.94;5030719;28;20034;-80
2023/01/06 09:18:49;;;;;;;1.23;0.60;;;10.80;99.90;;;-144.05;74.99;125687.94;5013770;28;20083;-83
2023/01/06 09:21:21;;;;;;;2.90;0.80;;;10.70;99.90;;;-144.05;74.99;125687.94;5014790;28;20042;-83
2023/01/06 09:23:53;;;;;;;4.47;0.70;;;10.80;99.90;;;-144.05;75.98;125687.94;5013230;28;20053;-83
2023/01/06 09:26:20;;;;;;;4.22;0.95;;;10.70;99.90;;;-144.05;75.61;125687.94;5013915;28;20041;-82
2023/01/06 09:28:46;;;;;;;2.08;0.80;;;10.70;99.90;;;-144.05;75.26;125687.94;5035216;23;20228;-81
2023/01/06 09:31:12;;;;;;;1.52;0.68;;;10.80;99.90;;;-144.05;74.98;125687.94;5036335;28;20068;-82
2023/01/06 09:33:39;;;;;;;3.60;2.00;;;10.80;99.90;;;-144.05;75.17;125687.94;5052379;28;20412;-81
2023/01/06 09:36:06;;;;;;;2.30;0.80;;;10.80;99.90;;;-144.05;74.57;125687.94;5036996;28;20033;-82
2023/01/06 09:38:32;;;;;;;2.95;0.73;;;10.80;99.90;;;-144.05;75.36;125687.94;5036011;28;20041;-82
2023/01/06 09:41:33;;;;;;;1.42;0.65;;;10.80;99.90;;;-144.05;75.67;125687.94;5035028;28;20025;-81
2023/01/06 09:45:18;;;;;;;6.15;0.82;;;10.80;99.90;;;-144.05;75.10;125687.94;5047318;23;20057;-72
2023/01/06 09:47:57;;;;;;;3.45;0.80;;;10.80;99.90;;;-144.05;75.01;125687.94;5005925;28;20042;-76
2023/01/06 09:50:44;;;;;;;0.75;0.60;;;10.80;99.90;;;-144.05;75.05;125687.94;4998367;28;20057;-73
2023/01/06 09:53:27;;;;;;;1.35;0.68;;;10.90;99.90;;;-144.05;74.63;125687.94;5033319;28;20037;-74
2023/01/06 09:56:04;;;;;;;1.55;0.50;;;10.90;99.90;;;-144.05;75.20;125687.94;5033388;28;20100;-74
2023/01/06 09:59:04;;;;;;;1.77;0.80;;;11.00;99.90;;;-144.05;77.49;125687.94;5032679;28;20571;-73
2023/01/06 10:01:43;;;;;;;3.72;0.57;;;10.80;99.90;;;-144.05;77.74;125687.94;5031962;28;20029;-76
2023/01/06 10:04:27;;;;;;;4.35;0.57;;;10.70;99.90;;;-144.05;78.97;125687.94;5031695;28;20033;-76
2023/01/06 10:07:34;;;;;;;1.30;0.70;;;10.70;99.90;;;-144.05;78.43;125687.94;5033189;28;20052;-75
2023/01/06 10:10:16;;;;;;;1.33;0.60;;;10.70;99.90;;;-144.05;77.67;125687.94;5032627;28;20037;-73
2023/01/06 10:13:36;;;;;;;1.83;0.70;;;10.70;99.90;;;-144.05;79.40;125687.94;5033454;28;20063;-75
2023/01/06 10:16:48;;;;;;;1.17;0.57;;;10.60;99.90;;;-144.05;80.45;125687.94;5037014;28;20037;-75
2023/01/06 10:20:10;;;;;;;2.40;0.70;;;10.60;99.90;;;-144.05;81.79;125687.94;5031327;28;20167;-74
2023/01/06 10:23:30;;;;;;;0.73;0.63;;;10.50;99.90;;;-144.05;81.72;125687.94;5037015;28;20112;-76
2023/01/06 10:26:24;;;;;;;1.25;0.70;;;10.50;99.90;;;-144.05;82.68;125687.94;5034137;28;20080;-73
2023/01/06 10:28:59;;;;;;;3.67;0.60;;;10.40;99.90;;;-144.05;82.92;125687.94;5040291;28;20354;-75
2023/01/06 10:31:35;;;;;;;2.33;0.80;;;10.40;99.90;;;-144.05;82.63;125687.94;5042527;28;20041;-73